sensor_id;sensor_type;location;lat;lon;timestamp;pressure;altitude;pressure_sealevel;temperature;humidity
10638;BME280;47007;49.252;8.904;2023-11-21T00:00:37;99103.31;;;10.59;100.00
10638;BME280;47007;49.252;8.904;2023-11-21T00:01:19;99101.06;;;10.56;100.00
10638;BME280;47007;49.252;8.904;2023-11-21T00:02:01;99107.00;;;10.58;100.00
10638;BME280;47007;49.252;8.904;2023-11-21T00:02:43;99105.16;;;10.58;100.00
10638;BME280;47007;49.252;8.904;2023-11-21T00:03:25;99105.34;;;10.57;100.00
10638;BME280;47007;49.252;8.904;2023-11-21T00:04:09;99103.72;;;10.56;100.00
10638;BME280;47007;49.252;8.904;2023-11-21T00:04:51;99112.69;;;10.55;100.00
10638;BME280;47007;49.252;8.904;2023-11-21T00:05:33;99103.72;;;10.56;100.00
10638;BME280;47007;49.252;8.904;2023-11-21T00:06:16;99099.25;;;10.56;100.00
10638;BME280;47007;49.252;8.904;2023-11-21T00:06:59;99094.13;;;10.55;100.00
10638;BME280;47007;49.252;8.904;2023-11-21T00:07:41;99093.13;;;10.56;100.00
10638;BME280;47007;49.252;8.904;2023-11-21T00:08:23;99099.44;;;10.55;100.00
10638;BME280;47007;49.252;8.904;2023-11-21T00:09:05;99104.72;;;10.55;100.00
10638;BME280;47007;49.252;8.904;2023-11-21T00:09:49;99098.41;;;10.56;100.00
10638;BME280;47007;49.252;8.904;2023-11-21T00:10:31;99098.41;;;10.56;100.00
10638;BME280;47007;49.252;8.904;2023-11-21T00:11:13;99104.34;;;10.58;100.00
10638;BME280;47007;49.252;8.904;2023-11-21T00:11:54;99094.75;;;10.57;100.00
10638;BME280;47007;49.252;8.904;2023-11-21T00:12:37;99085.75;;;10.51;100.00
10638;BME280;47007;49.252;8.904;2023-11-21T00:13:18;99092.09;;;10.63;100.00
10638;BME280;47007;49.252;8.904;2023-11-21T00:14:00;99090.06;;;10.65;100.00
10638;BME280;47007;49.252;8.904;2023-11-21T00:14:42;99091.50;;;10.68;100.00
10638;BME280;47007;49.252;8.904;2023-11-21T00:15:24;99097.44;;;10.70;100.00
10638;BME280;47007;49.252;8.904;2023-11-21T00:16:06;99093.78;;;10.71;100.00
10638;BME280;47007;49.252;8.904;2023-11-21T00:16:49;99096.03;;;10.74;100.00
10638;BME280;47007;49.252;8.904;2023-11-21T00:17:31;99098.69;;;10.74;100.00
10638;BME280;47007;49.252;8.904;2023-11-21T00:18:12;99097.66;;;10.75;100.00
10638;BME280;47007;49.252;8.904;2023-11-21T00:18:55;99104.38;;;10.71;100.00
10638;BME280;47007;49.252;8.904;2023-11-21T00:19:37;99098.44;;;10.69;100.00
10638;BME280;47007;49.252;8.904;2023-11-21T00:20:19;99107.63;;;10.66;100.00
10638;BME280;47007;49.252;8.904;2023-11-21T00:21:01;99102.50;;;10.65;100.00
10638;BME280;47007;49.252;8.904;2023-11-21T00:21:43;99099.84;;;10.65;100.00
10638;BME280;47007;49.252;8.904;2023-11-21T00:22:26;99094.34;;;10.66;100.00
10638;BME280;47007;49.252;8.904;2023-11-21T00:23:08;99100.91;;;10.70;100.00
10638;BME280;47007;49.252;8.904;2023-11-21T00:23:51;99096.84;;;10.74;100.00
10638;BME280;47007;49.252;8.904;2023-11-21T00:24:32;99095.19;;;10.80;100.00
10638;BME280;47007;49.252;8.904;2023-11-21T00:25:14;99094.19;;;10.81;100.00
10638;BME280;47007;49.252;8.904;2023-11-21T00:25:57;99092.78;;;10.85;100.00
10638;BME280;47007;49.252;8.904;2023-11-21T00:26:40;99076.03;;;10.78;100.00
10638;BME280;47007;49.252;8.904;2023-11-21T00:27:22;99093.78;;;10.91;100.00
10638;BME280;47007;49.252;8.904;2023-11-21T00:28:04;99096.22;;;10.92;100.00
10638;BME280;47007;49.252;8.904;2023-11-21T00:28:45;99090.94;;;10.92;100.00
10638;BME280;47007;49.252;8.904;2023-11-21T00:29:27;99090.72;;;10.94;100.00
10638;BME280;47007;49.252;8.904;2023-11-21T00:30:10;99100.53;;;11.00;100.00
10638;BME280;47007;49.252;8.904;2023-11-21T00:30:52;99101.31;;;11.00;100.00
10638;BME280;47007;49.252;8.904;2023-11-21T00:31:34;99098.28;;;11.03;100.00
10638;BME280;47007;49.252;8.904;2023-11-21T00:32:17;99103.19;;;11.06;100.00
10638;BME280;47007;49.252;8.904;2023-11-21T00:32:59;99107.47;;;11.07;100.00
10638;BME280;47007;49.252;8.904;2023-11-21T00:33:41;99097.69;;;11.08;100.00
10638;BME280;47007;49.252;8.904;2023-11-21T00:34:23;99106.03;;;11.11;100.00
10638;BME280;47007;49.252;8.904;2023-11-21T00:35:05;99109.28;;;11.13;100.00
10638;BME280;47007;49.252;8.904;2023-11-21T00:35:47;99111.53;;;11.16;100.00
10638;BME280;47007;49.252;8.904;2023-11-21T00:36:29;99113.56;;;11.14;100.00
10638;BME280;47007;49.252;8.904;2023-11-21T00:37:11;99109.28;;;11.13;100.00
10638;BME280;47007;49.252;8.904;2023-11-21T00:37:53;99106.63;;;11.13;100.00
10638;BME280;47007;49.252;8.904;2023-11-21T00:38:37;99112.56;;;11.15;100.00
10638;BME280;47007;49.252;8.904;2023-11-21T00:39:21;99103.97;;;11.13;100.00
10638;BME280;47007;49.252;8.904;2023-11-21T00:40:03;99094.22;;;11.07;100.00
10638;BME280;47007;49.252;8.904;2023-11-21T00:40:48;99106.44;;;11.08;100.00
10638;BME280;47007;49.252;8.904;2023-11-21T00:41:30;99100.53;;;11.06;100.00
10638;BME280;47007;49.252;8.904;2023-11-21T00:42:12;99100.09;;;11.03;100.00
10638;BME280;47007;49.252;8.904;2023-11-21T00:42:54;99100.94;;;11.03;100.00
10638;BME280;47007;49.252;8.904;2023-11-21T00:43:38;99104.19;;;11.05;100.00
10638;BME280;47007;49.252;8.904;2023-11-21T00:44:20;99100.13;;;10.96;100.00
10638;BME280;47007;49.252;8.904;2023-11-21T00:45:02;99095.84;;;10.95;100.00
10638;BME280;47007;49.252;8.904;2023-11-21T00:45:45;99102.56;;;10.98;100.00
10638;BME280;47007;49.252;8.904;2023-11-21T00:46:30;99102.97;;;10.95;100.00
10638;BME280;47007;49.252;8.904;2023-11-21T00:47:12;99098.06;;;10.92;100.00
10638;BME280;47007;49.252;8.904;2023-11-21T00:47:54;99106.22;;;10.90;100.00
10638;BME280;47007;49.252;8.904;2023-11-21T00:48:36;99098.69;;;10.87;100.00
10638;BME280;47007;49.252;8.904;2023-11-21T00:49:18;99081.75;;;10.75;100.00
10638;BME280;47007;49.252;8.904;2023-11-21T00:49:59;99095.41;;;10.85;100.00
10638;BME280;47007;49.252;8.904;2023-11-21T00:50:41;99094.59;;;10.85;100.00
10638;BME280;47007;49.252;8.904;2023-11-21T00:51:23;99093.78;;;10.84;100.00
10638;BME280;47007;49.252;8.904;2023-11-21T00:52:06;99077.03;;;10.77;100.00
10638;BME280;47007;49.252;8.904;2023-11-21T00:52:48;99094.22;;;10.88;100.00
10638;BME280;47007;49.252;8.904;2023-11-21T00:53:30;99085.44;;;10.87;100.00
10638;BME280;47007;49.252;8.904;2023-11-21T00:54:11;99090.31;;;10.90;100.00
10638;BME280;47007;49.252;8.904;2023-11-21T00:54:53;99086.66;;;10.91;100.00
10638;BME280;47007;49.252;8.904;2023-11-21T00:55:35;99082.78;;;10.94;100.00
10638;BME280;47007;49.252;8.904;2023-11-21T00:56:18;99067.06;;;10.86;100.00
10638;BME280;47007;49.252;8.904;2023-11-21T00:57:00;99081.56;;;10.96;100.00
10638;BME280;47007;49.252;8.904;2023-11-21T00:57:41;99069.94;;;10.84;100.00
10638;BME280;47007;49.252;8.904;2023-11-21T00:58:24;99082.56;;;10.95;100.00
10638;BME280;47007;49.252;8.904;2023-11-21T00:59:06;99081.75;;;10.95;100.00
10638;BME280;47007;49.252;8.904;2023-11-21T00:59:48;99087.88;;;10.95;100.00
10638;BME280;47007;49.252;8.904;2023-11-21T01:00:30;99069.31;;;10.89;100.00
10638;BME280;47007;49.252;8.904;2023-11-21T01:01:12;99080.34;;;10.99;100.00
10638;BME280;47007;49.252;8.904;2023-11-21T01:01:53;99076.44;;;11.01;100.00
10638;BME280;47007;49.252;8.904;2023-11-21T01:02:36;99077.88;;;11.04;100.00
10638;BME280;47007;49.252;8.904;2023-11-21T01:03:17;99077.25;;;11.02;100.00
10638;BME280;47007;49.252;8.904;2023-11-21T01:04:00;99086.88;;;10.96;100.00
10638;BME280;47007;49.252;8.904;2023-11-21T01:04:42;99081.75;;;10.88;100.00
10638;BME280;47007;49.252;8.904;2023-11-21T01:05:25;99084.63;;;10.87;100.00
10638;BME280;47007;49.252;8.904;2023-11-21T01:06:08;99078.69;;;10.78;100.00
10638;BME280;47007;49.252;8.904;2023-11-21T01:06:50;99088.47;;;10.77;100.00
10638;BME280;47007;49.252;8.904;2023-11-21T01:07:31;99090.09;;;10.78;100.00
10638;BME280;47007;49.252;8.904;2023-11-21T01:08:13;99095.19;;;10.80;100.00
10638;BME280;47007;49.252;8.904;2023-11-21T01:08:55;99072.56;;;10.71;100.00
10638;BME280;47007;49.252;8.904;2023-11-21T01:09:37;99088.06;;;10.80;100.00
10638;BME280;47007;49.252;8.904;2023-11-21T01:10:18;99085.22;;;10.75;100.00
10638;BME280;47007;49.252;8.904;2023-11-21T01:11:00;99081.75;;;10.75;100.00
10638;BME280;47007;49.252;8.904;2023-11-21T01:11:42;99076.03;;;10.78;100.00
10638;BME280;47007;49.252;8.904;2023-11-21T01:12:24;99089.50;;;10.90;100.00
10638;BME280;47007;49.252;8.904;2023-11-21T01:13:07;99090.72;;;10.94;100.00
10638;BME280;47007;49.252;8.904;2023-11-21T01:13:48;99077.88;;;10.91;100.00
10638;BME280;47007;49.252;8.904;2023-11-21T01:14:30;99092.59;;;11.00;100.00
10638;BME280;47007;49.252;8.904;2023-11-21T01:15:12;99091.13;;;11.04;100.00
10638;BME280;47007;49.252;8.904;2023-11-21T01:15:54;99099.91;;;11.04;100.00
10638;BME280;47007;49.252;8.904;2023-11-21T01:16:36;99098.28;;;11.03;100.00
10638;BME280;47007;49.252;8.904;2023-11-21T01:17:18;99098.47;;;11.02;100.00
10638;BME280;47007;49.252;8.904;2023-11-21T01:18:00;99084.22;;;10.96;100.00
10638;BME280;47007;49.252;8.904;2023-11-21T01:18:42;99109.50;;;11.05;100.00
10638;BME280;47007;49.252;8.904;2023-11-21T01:19:23;99098.06;;;11.05;100.00
10638;BME280;47007;49.252;8.904;2023-11-21T01:20:06;99096.25;;;11.05;100.00
10638;BME280;47007;49.252;8.904;2023-11-21T01:20:54;99099.72;;;11.06;100.00
10638;BME280;47007;49.252;8.904;2023-11-21T01:21:35;99092.97;;;11.03;100.00
10638;BME280;47007;49.252;8.904;2023-11-21T01:22:17;99099.72;;;11.06;100.00
10638;BME280;47007;49.252;8.904;2023-11-21T01:23:01;99087.06;;;11.08;100.00
10638;BME280;47007;49.252;8.904;2023-11-21T01:23:43;99093.81;;;11.10;100.00
10638;BME280;47007;49.252;8.904;2023-11-21T01:24:24;99090.53;;;11.08;100.00
10638;BME280;47007;49.252;8.904;2023-11-21T01:25:06;99096.03;;;11.13;100.00
10638;BME280;47007;49.252;8.904;2023-11-21T01:25:49;99107.06;;;11.10;100.00
10638;BME280;47007;49.252;8.904;2023-11-21T01:26:31;99101.34;;;11.07;100.00
10638;BME280;47007;49.252;8.904;2023-11-21T01:27:12;99100.53;;;11.06;100.00
10638;BME280;47007;49.252;8.904;2023-11-21T01:27:54;99086.25;;;11.07;100.00
10638;BME280;47007;49.252;8.904;2023-11-21T01:28:36;99088.69;;;11.02;100.00
10638;BME280;47007;49.252;8.904;2023-11-21T01:29:17;99098.28;;;11.16;100.00
10638;BME280;47007;49.252;8.904;2023-11-21T01:30:00;99101.34;;;11.20;100.00
10638;BME280;47007;49.252;8.904;2023-11-21T01:30:41;99101.97;;;11.22;100.00
10638;BME280;47007;49.252;8.904;2023-11-21T01:31:23;99106.84;;;11.25;100.00
10638;BME280;47007;49.252;8.904;2023-11-21T01:32:05;99082.56;;;11.15;100.00
10638;BME280;47007;49.252;8.904;2023-11-21T01:32:49;99109.50;;;11.32;100.00
10638;BME280;47007;49.252;8.904;2023-11-21T01:33:32;99101.34;;;11.33;100.00
10638;BME280;47007;49.252;8.904;2023-11-21T01:34:13;99107.47;;;11.34;100.00
10638;BME280;47007;49.252;8.904;2023-11-21T01:34:55;99103.38;;;11.31;100.00
10638;BME280;47007;49.252;8.904;2023-11-21T01:35:37;99088.69;;;11.29;100.00
10638;BME280;47007;49.252;8.904;2023-11-21T01:36:19;99085.84;;;11.24;100.00
10638;BME280;47007;49.252;8.904;2023-11-21T01:37:01;99074.41;;;11.16;100.00
10638;BME280;47007;49.252;8.904;2023-11-21T01:37:46;99105.22;;;11.31;100.00
10638;BME280;47007;49.252;8.904;2023-11-21T01:38:29;99105.63;;;11.28;100.00
10638;BME280;47007;49.252;8.904;2023-11-21T01:39:11;99109.09;;;11.28;100.00
10638;BME280;47007;49.252;8.904;2023-11-21T01:39:56;99112.97;;;11.26;100.00
10638;BME280;47007;49.252;8.904;2023-11-21T01:40:38;99119.72;;;11.22;100.00
10638;BME280;47007;49.252;8.904;2023-11-21T01:41:20;99100.53;;;11.20;100.00
10638;BME280;47007;49.252;8.904;2023-11-21T01:42:02;99112.56;;;11.15;100.00
10638;BME280;47007;49.252;8.904;2023-11-21T01:42:44;99109.91;;;11.15;100.00
10638;BME280;47007;49.252;8.904;2023-11-21T01:43:27;99111.13;;;11.13;100.00
10638;BME280;47007;49.252;8.904;2023-11-21T01:44:08;99114.00;;;11.11;100.00
10638;BME280;47007;49.252;8.904;2023-11-21T01:44:50;99113.19;;;11.11;100.00
10638;BME280;47007;49.252;8.904;2023-11-21T01:45:32;99104.22;;;11.12;100.00
10638;BME280;47007;49.252;8.904;2023-11-21T01:46:15;99096.03;;;11.13;100.00
10638;BME280;47007;49.252;8.904;2023-11-21T01:46:57;99096.47;;;11.10;100.00
10638;BME280;47007;49.252;8.904;2023-11-21T01:47:40;99103.38;;;11.18;100.00
10638;BME280;47007;49.252;8.904;2023-11-21T01:48:23;99104.81;;;11.21;100.00
10638;BME280;47007;49.252;8.904;2023-11-21T01:49:05;99100.13;;;11.16;100.00
10638;BME280;47007;49.252;8.904;2023-11-21T01:49:48;99104.59;;;11.15;100.00
10638;BME280;47007;49.252;8.904;2023-11-21T01:50:30;99105.63;;;11.14;100.00
10638;BME280;47007;49.252;8.904;2023-11-21T01:51:12;99112.97;;;11.12;100.00
10638;BME280;47007;49.252;8.904;2023-11-21T01:51:54;99105.03;;;11.12;100.00
10638;BME280;47007;49.252;8.904;2023-11-21T01:52:36;99111.75;;;11.15;100.00
10638;BME280;47007;49.252;8.904;2023-11-21T01:53:18;99105.00;;;11.19;100.00
10638;BME280;47007;49.252;8.904;2023-11-21T01:54:00;99103.19;;;11.20;100.00
10638;BME280;47007;49.252;8.904;2023-11-21T01:54:41;99106.03;;;11.25;100.00
10638;BME280;47007;49.252;8.904;2023-11-21T01:55:24;99107.06;;;11.24;100.00
10638;BME280;47007;49.252;8.904;2023-11-21T01:56:10;99108.09;;;11.23;100.00
10638;BME280;47007;49.252;8.904;2023-11-21T01:56:51;99109.31;;;11.20;100.00
10638;BME280;47007;49.252;8.904;2023-11-21T01:57:34;99101.75;;;11.17;100.00
10638;BME280;47007;49.252;8.904;2023-11-21T01:58:16;99106.44;;;11.15;100.00
10638;BME280;47007;49.252;8.904;2023-11-21T01:58:58;99109.28;;;11.13;100.00
10638;BME280;47007;49.252;8.904;2023-11-21T01:59:41;99099.91;;;11.18;100.00
10638;BME280;47007;49.252;8.904;2023-11-21T02:00:24;99101.75;;;11.17;100.00
10638;BME280;47007;49.252;8.904;2023-11-21T02:01:06;99107.25;;;11.15;100.00
10638;BME280;47007;49.252;8.904;2023-11-21T02:01:48;99088.91;;;11.07;100.00
10638;BME280;47007;49.252;8.904;2023-11-21T02:02:33;99106.22;;;11.16;100.00
10638;BME280;47007;49.252;8.904;2023-11-21T02:03:14;99099.91;;;11.18;100.00
10638;BME280;47007;49.252;8.904;2023-11-21T02:03:56;99107.25;;;11.15;100.00
10638;BME280;47007;49.252;8.904;2023-11-21T02:04:38;99106.88;;;11.12;100.00
10638;BME280;47007;49.252;8.904;2023-11-21T02:05:20;99109.53;;;11.12;100.00
10638;BME280;47007;49.252;8.904;2023-11-21T02:06:03;99107.06;;;11.10;100.00
10638;BME280;47007;49.252;8.904;2023-11-21T02:06:45;99101.34;;;11.07;100.00
10638;BME280;47007;49.252;8.904;2023-11-21T02:07:27;99101.53;;;11.05;100.00
10638;BME280;47007;49.252;8.904;2023-11-21T02:08:08;99102.97;;;11.01;100.00
10638;BME280;47007;49.252;8.904;2023-11-21T02:08:51;99093.19;;;10.95;100.00
10638;BME280;47007;49.252;8.904;2023-11-21T02:09:33;99100.75;;;10.98;100.00
10638;BME280;47007;49.252;8.904;2023-11-21T02:10:15;99087.66;;;10.90;100.00
10638;BME280;47007;49.252;8.904;2023-11-21T02:10:58;99098.47;;;11.02;100.00
10638;BME280;47007;49.252;8.904;2023-11-21T02:11:39;99098.69;;;11.00;100.00
10638;BME280;47007;49.252;8.904;2023-11-21T02:12:21;99093.59;;;11.05;100.00
10638;BME280;47007;49.252;8.904;2023-11-21T02:13:03;99102.97;;;11.08;100.00
10638;BME280;47007;49.252;8.904;2023-11-21T02:13:45;99099.72;;;11.06;100.00
10638;BME280;47007;49.252;8.904;2023-11-21T02:14:28;99104.41;;;11.04;100.00
10638;BME280;47007;49.252;8.904;2023-11-21T02:15:12;99095.63;;;11.03;100.00
10638;BME280;47007;49.252;8.904;2023-11-21T02:15:58;99099.50;;;11.01;100.00
10638;BME280;47007;49.252;8.904;2023-11-21T02:16:39;99099.28;;;11.02;100.00
10638;BME280;47007;49.252;8.904;2023-11-21T02:17:22;99093.16;;;11.02;100.00
10638;BME280;47007;49.252;8.904;2023-11-21T02:18:05;99104.22;;;11.12;100.00
10638;BME280;47007;49.252;8.904;2023-11-21T02:18:48;99093.38;;;11.13;100.00
10638;BME280;47007;49.252;8.904;2023-11-21T02:19:30;99098.91;;;11.19;100.00
10638;BME280;47007;49.252;8.904;2023-11-21T02:20:13;99096.47;;;11.24;100.00
10638;BME280;47007;49.252;8.904;2023-11-21T02:20:57;99100.13;;;11.23;100.00
10638;BME280;47007;49.252;8.904;2023-11-21T02:21:39;99097.06;;;11.19;100.00
10638;BME280;47007;49.252;8.904;2023-11-21T02:22:22;99102.16;;;11.21;100.00
10638;BME280;47007;49.252;8.904;2023-11-21T02:23:07;99090.53;;;11.15;100.00
10638;BME280;47007;49.252;8.904;2023-11-21T02:23:49;99099.91;;;11.18;100.00
10638;BME280;47007;49.252;8.904;2023-11-21T02:24:41;99101.34;;;11.20;100.00
10638;BME280;47007;49.252;8.904;2023-11-21T02:25:27;99098.06;;;11.18;100.00
10638;BME280;47007;49.252;8.904;2023-11-21T02:26:10;99098.28;;;11.16;100.00
10638;BME280;47007;49.252;8.904;2023-11-21T02:26:53;99098.06;;;11.18;100.00
10638;BME280;47007;49.252;8.904;2023-11-21T02:27:35;99098.06;;;11.18;100.00
10638;BME280;47007;49.252;8.904;2023-11-21T02:28:17;99099.50;;;11.21;100.00
10638;BME280;47007;49.252;8.904;2023-11-21T02:29:07;99102.97;;;11.21;100.00
10638;BME280;47007;49.252;8.904;2023-11-21T02:29:52;99100.94;;;11.16;100.00
10638;BME280;47007;49.252;8.904;2023-11-21T02:30:34;99096.63;;;11.15;100.00
10638;BME280;47007;49.252;8.904;2023-11-21T02:31:16;99099.28;;;11.15;100.00
10638;BME280;47007;49.252;8.904;2023-11-21T02:31:57;99084.00;;;11.04;100.00
10638;BME280;47007;49.252;8.904;2023-11-21T02:32:39;99097.66;;;11.14;100.00
10638;BME280;47007;49.252;8.904;2023-11-21T02:33:30;99082.16;;;11.05;100.00
10638;BME280;47007;49.252;8.904;2023-11-21T02:34:15;99094.41;;;11.12;100.00
10638;BME280;47007;49.252;8.904;2023-11-21T02:34:58;99107.25;;;11.15;100.00
10638;BME280;47007;49.252;8.904;2023-11-21T02:35:42;99103.38;;;11.18;100.00
10638;BME280;47007;49.252;8.904;2023-11-21T02:36:24;99102.56;;;11.18;100.00
10638;BME280;47007;49.252;8.904;2023-11-21T02:37:07;99096.44;;;11.17;100.00
10638;BME280;47007;49.252;8.904;2023-11-21T02:37:49;99092.78;;;11.18;100.00
10638;BME280;47007;49.252;8.904;2023-11-21T02:38:31;99082.78;;;11.07;100.00
10638;BME280;47007;49.252;8.904;2023-11-21T02:39:13;99090.72;;;11.20;100.00
10638;BME280;47007;49.252;8.904;2023-11-21T02:39:55;99088.69;;;11.15;100.00
10638;BME280;47007;49.252;8.904;2023-11-21T02:40:37;99101.31;;;11.27;100.00
10638;BME280;47007;49.252;8.904;2023-11-21T02:41:18;99090.72;;;11.27;100.00
10638;BME280;47007;49.252;8.904;2023-11-21T02:42:00;99102.56;;;11.31;100.00
10638;BME280;47007;49.252;8.904;2023-11-21T02:42:42;99106.66;;;11.33;100.00
10638;BME280;47007;49.252;8.904;2023-11-21T02:43:24;99093.16;;;11.28;100.00
10638;BME280;47007;49.252;8.904;2023-11-21T02:44:06;99097.25;;;11.37;100.00
10638;BME280;47007;49.252;8.904;2023-11-21T02:44:48;99102.78;;;11.36;100.00
10638;BME280;47007;49.252;8.904;2023-11-21T02:45:30;99108.28;;;11.34;100.00
10638;BME280;47007;49.252;8.904;2023-11-21T02:46:11;99097.88;;;11.33;100.00
10638;BME280;47007;49.252;8.904;2023-11-21T02:46:53;99101.94;;;11.29;100.00
10638;BME280;47007;49.252;8.904;2023-11-21T02:47:35;99101.53;;;11.25;100.00
10638;BME280;47007;49.252;8.904;2023-11-21T02:48:17;99100.94;;;11.23;100.00
10638;BME280;47007;49.252;8.904;2023-11-21T02:49:02;99099.50;;;11.14;100.00
10638;BME280;47007;49.252;8.904;2023-11-21T02:49:44;99098.50;;;11.08;100.00
10638;BME280;47007;49.252;8.904;2023-11-21T02:50:26;99102.56;;;11.04;100.00
10638;BME280;47007;49.252;8.904;2023-11-21T02:51:08;99102.38;;;10.99;100.00
10638;BME280;47007;49.252;8.904;2023-11-21T02:51:50;99101.75;;;10.97;100.00
10638;BME280;47007;49.252;8.904;2023-11-21T02:52:32;99095.63;;;10.97;100.00
10638;BME280;47007;49.252;8.904;2023-11-21T02:53:14;99088.91;;;10.94;100.00
10638;BME280;47007;49.252;8.904;2023-11-21T02:53:56;99095.63;;;10.97;100.00
10638;BME280;47007;49.252;8.904;2023-11-21T02:54:42;99094.00;;;10.96;100.00
10638;BME280;47007;49.252;8.904;2023-11-21T02:55:24;99089.91;;;10.93;100.00
10638;BME280;47007;49.252;8.904;2023-11-21T02:56:08;99088.28;;;10.99;100.00
10638;BME280;47007;49.252;8.904;2023-11-21T02:56:50;99086.03;;;11.02;100.00
10638;BME280;47007;49.252;8.904;2023-11-21T02:57:31;99092.16;;;11.03;100.00
10638;BME280;47007;49.252;8.904;2023-11-21T02:58:13;99094.81;;;11.03;100.00
10638;BME280;47007;49.252;8.904;2023-11-21T02:58:55;99085.22;;;11.02;100.00
10638;BME280;47007;49.252;8.904;2023-11-21T02:59:38;99086.47;;;10.99;100.00
10638;BME280;47007;49.252;8.904;2023-11-21T03:00:20;99094.41;;;10.99;100.00
10638;BME280;47007;49.252;8.904;2023-11-21T03:01:05;99094.41;;;10.99;100.00
10638;BME280;47007;49.252;8.904;2023-11-21T03:01:49;99091.53;;;10.94;100.00
10638;BME280;47007;49.252;8.904;2023-11-21T03:02:31;99087.03;;;10.88;100.00
10638;BME280;47007;49.252;8.904;2023-11-21T03:03:14;99086.03;;;10.83;100.00
10638;BME280;47007;49.252;8.904;2023-11-21T03:03:56;99085.00;;;10.77;100.00
10638;BME280;47007;49.252;8.904;2023-11-21T03:04:38;99064.00;;;10.69;100.00
10638;BME280;47007;49.252;8.904;2023-11-21T03:05:20;99080.72;;;10.76;100.00
10638;BME280;47007;49.252;8.904;2023-11-21T03:06:03;99069.50;;;10.67;100.00
10638;BME280;47007;49.252;8.904;2023-11-21T03:06:45;99080.72;;;10.76;100.00
10638;BME280;47007;49.252;8.904;2023-11-21T03:07:27;99083.97;;;10.78;100.00
10638;BME280;47007;49.252;8.904;2023-11-21T03:08:08;99082.75;;;10.80;100.00
10638;BME280;47007;49.252;8.904;2023-11-21T03:08:50;99085.22;;;10.82;100.00
10638;BME280;47007;49.252;8.904;2023-11-21T03:09:32;99086.66;;;10.85;100.00
10638;BME280;47007;49.252;8.904;2023-11-21T03:10:14;99085.84;;;10.84;100.00
10638;BME280;47007;49.252;8.904;2023-11-21T03:10:55;99072.97;;;10.81;100.00
10638;BME280;47007;49.252;8.904;2023-11-21T03:11:38;99077.25;;;10.82;100.00
10638;BME280;47007;49.252;8.904;2023-11-21T03:12:20;99086.25;;;10.94;100.00
10638;BME280;47007;49.252;8.904;2023-11-21T03:13:02;99083.00;;;10.99;100.00
10638;BME280;47007;49.252;8.904;2023-11-21T03:13:45;99085.41;;;11.00;100.00
10638;BME280;47007;49.252;8.904;2023-11-21T03:14:26;99079.72;;;11.03;100.00
10638;BME280;47007;49.252;8.904;2023-11-21T03:15:08;99079.94;;;11.08;100.00
10638;BME280;47007;49.252;8.904;2023-11-21T03:15:51;99086.06;;;11.09;100.00
10638;BME280;47007;49.252;8.904;2023-11-21T03:16:33;99083.19;;;11.10;100.00
10638;BME280;47007;49.252;8.904;2023-11-21T03:17:15;99087.06;;;11.08;100.00
10638;BME280;47007;49.252;8.904;2023-11-21T03:17:57;99066.28;;;10.98;100.00
10638;BME280;47007;49.252;8.904;2023-11-21T03:18:39;99077.69;;;11.05;100.00
10638;BME280;47007;49.252;8.904;2023-11-21T03:19:20;99084.00;;;11.04;100.00
10638;BME280;47007;49.252;8.904;2023-11-21T03:20:03;99086.66;;;11.04;100.00
10638;BME280;47007;49.252;8.904;2023-11-21T03:20:45;99080.53;;;11.04;100.00
10638;BME280;47007;49.252;8.904;2023-11-21T03:21:27;99091.75;;;11.06;100.00
10638;BME280;47007;49.252;8.904;2023-11-21T03:22:10;99084.00;;;11.04;100.00
10638;BME280;47007;49.252;8.904;2023-11-21T03:22:53;99084.63;;;11.00;100.00
10638;BME280;47007;49.252;8.904;2023-11-21T03:23:35;99075.63;;;10.94;100.00
10638;BME280;47007;49.252;8.904;2023-11-21T03:24:17;99081.97;;;10.93;100.00
10638;BME280;47007;49.252;8.904;2023-11-21T03:25:01;99087.66;;;10.90;100.00
10638;BME280;47007;49.252;8.904;2023-11-21T03:25:42;99083.81;;;10.86;100.00
10638;BME280;47007;49.252;8.904;2023-11-21T03:26:24;99087.47;;;10.85;100.00
10638;BME280;47007;49.252;8.904;2023-11-21T03:27:06;99083.19;;;10.84;100.00
10638;BME280;47007;49.252;8.904;2023-11-21T03:27:48;99080.53;;;10.84;100.00
10638;BME280;47007;49.252;8.904;2023-11-21T03:28:29;99078.69;;;10.85;100.00
10638;BME280;47007;49.252;8.904;2023-11-21T03:29:14;99080.13;;;10.87;100.00
10638;BME280;47007;49.252;8.904;2023-11-21T03:29:56;99081.75;;;10.88;100.00
10638;BME280;47007;49.252;8.904;2023-11-21T03:30:38;99090.31;;;10.90;100.00
10638;BME280;47007;49.252;8.904;2023-11-21T03:31:20;99084.00;;;10.91;100.00
10638;BME280;47007;49.252;8.904;2023-11-21T03:32:03;99079.72;;;10.90;100.00
10638;BME280;47007;49.252;8.904;2023-11-21T03:32:44;99085.63;;;10.92;100.00
10638;BME280;47007;49.252;8.904;2023-11-21T03:33:26;99081.97;;;10.93;100.00
10638;BME280;47007;49.252;8.904;2023-11-21T03:34:14;99075.03;;;10.92;100.00
10638;BME280;47007;49.252;8.904;2023-11-21T03:34:57;99079.31;;;10.93;100.00
10638;BME280;47007;49.252;8.904;2023-11-21T03:35:41;99083.78;;;10.93;100.00
10638;BME280;47007;49.252;8.904;2023-11-21T03:36:23;99082.56;;;10.95;100.00
10638;BME280;47007;49.252;8.904;2023-11-21T03:37:07;99025.47;;;10.66;100.00
10638;BME280;47007;49.252;8.904;2023-11-21T03:37:48;99090.53;;;11.02;100.00
10638;BME280;47007;49.252;8.904;2023-11-21T03:38:30;99066.88;;;10.94;100.00
10638;BME280;47007;49.252;8.904;2023-11-21T03:39:12;99050.97;;;10.87;100.00
10638;BME280;47007;49.252;8.904;2023-11-21T03:39:55;99079.09;;;11.01;100.00
10638;BME280;47007;49.252;8.904;2023-11-21T03:40:38;99083.19;;;11.10;100.00
10638;BME280;47007;49.252;8.904;2023-11-21T03:41:21;99072.38;;;11.05;100.00
10638;BME280;47007;49.252;8.904;2023-11-21T03:42:04;99087.88;;;11.15;100.00